sensor_id;sensor_type;location;lat;lon;timestamp;P1;durP1;ratioP1;P2;durP2;ratioP2
20695;SDS011;10507;52.754;13.040;2022-11-25T00:01:03;41.80;;;23.07;;
20695;SDS011;10507;52.754;13.040;2022-11-25T00:03:32;39.07;;;21.03;;
20695;SDS011;10507;52.754;13.040;2022-11-25T00:06:08;39.30;;;23.07;;
20695;SDS011;10507;52.754;13.040;2022-11-25T00:08:39;34.30;;;21.73;;
20695;SDS011;10507;52.754;13.040;2022-11-25T00:11:07;38.97;;;21.63;;
20695;SDS011;10507;52.754;13.040;2022-11-25T00:13:36;39.83;;;21.80;;
20695;SDS011;10507;52.754;13.040;2022-11-25T00:16:06;39.90;;;23.37;;
20695;SDS011;10507;52.754;13.040;2022-11-25T00:18:36;34.37;;;21.13;;
20695;SDS011;10507;52.754;13.040;2022-11-25T00:21:04;37.03;;;21.77;;
20695;SDS011;10507;52.754;13.040;2022-11-25T00:23:33;36.10;;;21.27;;
20695;SDS011;10507;52.754;13.040;2022-11-25T00:26:06;36.43;;;20.77;;
20695;SDS011;10507;52.754;13.040;2022-11-25T00:28:35;31.30;;;20.27;;
20695;SDS011;10507;52.754;13.040;2022-11-25T00:31:04;34.07;;;20.20;;
20695;SDS011;10507;52.754;13.040;2022-11-25T00:33:33;35.53;;;20.93;;
20695;SDS011;10507;52.754;13.040;2022-11-25T00:36:02;31.40;;;19.37;;
20695;SDS011;10507;52.754;13.040;2022-11-25T00:38:31;33.43;;;19.60;;
20695;SDS011;10507;52.754;13.040;2022-11-25T00:40:59;33.37;;;19.20;;
20695;SDS011;10507;52.754;13.040;2022-11-25T00:43:46;34.23;;;19.63;;
20695;SDS011;10507;52.754;13.040;2022-11-25T00:46:31;34.93;;;19.67;;
20695;SDS011;10507;52.754;13.040;2022-11-25T00:48:59;35.83;;;19.80;;
20695;SDS011;10507;52.754;13.040;2022-11-25T00:51:26;36.80;;;19.87;;
20695;SDS011;10507;52.754;13.040;2022-11-25T00:53:54;31.33;;;18.93;;
20695;SDS011;10507;52.754;13.040;2022-11-25T00:56:24;33.33;;;18.70;;
20695;SDS011;10507;52.754;13.040;2022-11-25T00:58:53;31.20;;;18.60;;
20695;SDS011;10507;52.754;13.040;2022-11-25T01:01:21;35.50;;;20.47;;
20695;SDS011;10507;52.754;13.040;2022-11-25T01:03:49;33.00;;;19.57;;
20695;SDS011;10507;52.754;13.040;2022-11-25T01:06:18;38.00;;;22.07;;
20695;SDS011;10507;52.754;13.040;2022-11-25T01:08:47;31.63;;;19.57;;
20695;SDS011;10507;52.754;13.040;2022-11-25T01:11:16;37.03;;;21.20;;
20695;SDS011;10507;52.754;13.040;2022-11-25T01:13:47;34.53;;;21.50;;
20695;SDS011;10507;52.754;13.040;2022-11-25T01:16:17;34.10;;;20.57;;
20695;SDS011;10507;52.754;13.040;2022-11-25T01:18:47;37.73;;;20.47;;
20695;SDS011;10507;52.754;13.040;2022-11-25T01:21:16;36.57;;;20.70;;
20695;SDS011;10507;52.754;13.040;2022-11-25T01:23:45;36.03;;;20.03;;
20695;SDS011;10507;52.754;13.040;2022-11-25T01:26:14;36.23;;;21.90;;
20695;SDS011;10507;52.754;13.040;2022-11-25T01:28:44;34.47;;;19.60;;
20695;SDS011;10507;52.754;13.040;2022-11-25T01:31:14;33.73;;;19.87;;
20695;SDS011;10507;52.754;13.040;2022-11-25T01:33:45;35.73;;;20.67;;
20695;SDS011;10507;52.754;13.040;2022-11-25T01:36:18;34.50;;;20.80;;
20695;SDS011;10507;52.754;13.040;2022-11-25T01:38:48;33.67;;;20.37;;
20695;SDS011;10507;52.754;13.040;2022-11-25T01:41:17;37.70;;;20.73;;
20695;SDS011;10507;52.754;13.040;2022-11-25T01:44:05;37.47;;;20.37;;
20695;SDS011;10507;52.754;13.040;2022-11-25T01:46:39;35.00;;;19.47;;
20695;SDS011;10507;52.754;13.040;2022-11-25T01:49:31;35.83;;;19.80;;
20695;SDS011;10507;52.754;13.040;2022-11-25T01:52:06;36.57;;;19.97;;
20695;SDS011;10507;52.754;13.040;2022-11-25T01:54:40;35.87;;;19.53;;
20695;SDS011;10507;52.754;13.040;2022-11-25T01:57:15;30.77;;;19.80;;
20695;SDS011;10507;52.754;13.040;2022-11-25T01:59:48;33.10;;;19.30;;
20695;SDS011;10507;52.754;13.040;2022-11-25T02:02:18;36.23;;;20.80;;
20695;SDS011;10507;52.754;13.040;2022-11-25T02:04:49;38.13;;;20.70;;
20695;SDS011;10507;52.754;13.040;2022-11-25T02:07:18;38.27;;;21.03;;
20695;SDS011;10507;52.754;13.040;2022-11-25T02:10:02;41.70;;;22.97;;
20695;SDS011;10507;52.754;13.040;2022-11-25T02:12:31;41.33;;;21.57;;
20695;SDS011;10507;52.754;13.040;2022-11-25T02:15:00;35.93;;;20.47;;
20695;SDS011;10507;52.754;13.040;2022-11-25T02:17:29;36.70;;;21.40;;
20695;SDS011;10507;52.754;13.040;2022-11-25T02:20:00;35.03;;;20.87;;
20695;SDS011;10507;52.754;13.040;2022-11-25T02:22:33;41.93;;;22.20;;
20695;SDS011;10507;52.754;13.040;2022-11-25T02:25:14;39.13;;;21.23;;
20695;SDS011;10507;52.754;13.040;2022-11-25T02:27:43;38.53;;;20.97;;
20695;SDS011;10507;52.754;13.040;2022-11-25T02:30:14;33.13;;;19.33;;
20695;SDS011;10507;52.754;13.040;2022-11-25T02:32:44;37.03;;;20.50;;
20695;SDS011;10507;52.754;13.040;2022-11-25T02:35:27;37.23;;;20.70;;
20695;SDS011;10507;52.754;13.040;2022-11-25T02:38:03;36.30;;;20.50;;
20695;SDS011;10507;52.754;13.040;2022-11-25T02:40:35;36.90;;;20.87;;
20695;SDS011;10507;52.754;13.040;2022-11-25T02:43:06;31.23;;;19.57;;
20695;SDS011;10507;52.754;13.040;2022-11-25T02:45:46;30.93;;;19.27;;
20695;SDS011;10507;52.754;13.040;2022-11-25T02:48:18;36.47;;;19.23;;
20695;SDS011;10507;52.754;13.040;2022-11-25T02:51:07;31.47;;;19.13;;
20695;SDS011;10507;52.754;13.040;2022-11-25T02:53:36;35.60;;;20.20;;
20695;SDS011;10507;52.754;13.040;2022-11-25T02:56:06;35.13;;;20.13;;
20695;SDS011;10507;52.754;13.040;2022-11-25T02:58:34;34.43;;;20.37;;
20695;SDS011;10507;52.754;13.040;2022-11-25T03:01:02;34.97;;;19.43;;
20695;SDS011;10507;52.754;13.040;2022-11-25T03:03:32;32.07;;;19.53;;
20695;SDS011;10507;52.754;13.040;2022-11-25T03:06:00;31.17;;;19.57;;
20695;SDS011;10507;52.754;13.040;2022-11-25T03:08:28;34.40;;;19.63;;
20695;SDS011;10507;52.754;13.040;2022-11-25T03:10:56;28.20;;;17.60;;
20695;SDS011;10507;52.754;13.040;2022-11-25T03:13:25;33.83;;;18.07;;
20695;SDS011;10507;52.754;13.040;2022-11-25T03:15:53;31.37;;;19.10;;
20695;SDS011;10507;52.754;13.040;2022-11-25T03:18:21;31.50;;;18.33;;
20695;SDS011;10507;52.754;13.040;2022-11-25T03:20:50;29.83;;;19.33;;
20695;SDS011;10507;52.754;13.040;2022-11-25T03:23:19;30.10;;;18.53;;
20695;SDS011;10507;52.754;13.040;2022-11-25T03:25:48;28.20;;;17.53;;
20695;SDS011;10507;52.754;13.040;2022-11-25T03:28:16;30.70;;;18.40;;
20695;SDS011;10507;52.754;13.040;2022-11-25T03:30:45;29.80;;;17.47;;
20695;SDS011;10507;52.754;13.040;2022-11-25T03:33:15;30.83;;;18.00;;
20695;SDS011;10507;52.754;13.040;2022-11-25T03:35:43;31.67;;;18.27;;
20695;SDS011;10507;52.754;13.040;2022-11-25T03:38:11;29.57;;;19.03;;
20695;SDS011;10507;52.754;13.040;2022-11-25T03:40:39;32.30;;;18.90;;
20695;SDS011;10507;52.754;13.040;2022-11-25T03:43:07;31.23;;;18.20;;
20695;SDS011;10507;52.754;13.040;2022-11-25T03:45:35;34.17;;;18.23;;
20695;SDS011;10507;52.754;13.040;2022-11-25T03:48:05;33.97;;;19.87;;
20695;SDS011;10507;52.754;13.040;2022-11-25T03:50:33;33.30;;;18.90;;
20695;SDS011;10507;52.754;13.040;2022-11-25T03:53:01;31.20;;;17.80;;
20695;SDS011;10507;52.754;13.040;2022-11-25T03:55:29;32.47;;;18.33;;
20695;SDS011;10507;52.754;13.040;2022-11-25T03:57:56;35.00;;;18.60;;
20695;SDS011;10507;52.754;13.040;2022-11-25T04:00:24;32.37;;;17.70;;
20695;SDS011;10507;52.754;13.040;2022-11-25T04:02:52;32.17;;;19.30;;
20695;SDS011;10507;52.754;13.040;2022-11-25T04:05:21;31.47;;;17.87;;
20695;SDS011;10507;52.754;13.040;2022-11-25T04:07:49;30.00;;;17.73;;
20695;SDS011;10507;52.754;13.040;2022-11-25T04:10:23;31.03;;;18.83;;
20695;SDS011;10507;52.754;13.040;2022-11-25T04:12:51;32.63;;;18.80;;
20695;SDS011;10507;52.754;13.040;2022-11-25T04:15:19;28.33;;;17.10;;
20695;SDS011;10507;52.754;13.040;2022-11-25T04:17:47;31.70;;;18.63;;
20695;SDS011;10507;52.754;13.040;2022-11-25T04:20:16;30.47;;;18.10;;
20695;SDS011;10507;52.754;13.040;2022-11-25T04:22:45;31.87;;;18.70;;
20695;SDS011;10507;52.754;13.040;2022-11-25T04:25:13;29.60;;;18.13;;
20695;SDS011;10507;52.754;13.040;2022-11-25T04:27:41;31.63;;;18.17;;
20695;SDS011;10507;52.754;13.040;2022-11-25T04:30:10;30.43;;;17.77;;
20695;SDS011;10507;52.754;13.040;2022-11-25T04:32:38;31.63;;;17.63;;
20695;SDS011;10507;52.754;13.040;2022-11-25T04:35:06;30.00;;;17.63;;
20695;SDS011;10507;52.754;13.040;2022-11-25T04:37:35;30.67;;;18.03;;
20695;SDS011;10507;52.754;13.040;2022-11-25T04:40:05;30.40;;;17.50;;
20695;SDS011;10507;52.754;13.040;2022-11-25T04:42:34;26.90;;;16.47;;
20695;SDS011;10507;52.754;13.040;2022-11-25T04:45:05;30.57;;;18.30;;
20695;SDS011;10507;52.754;13.040;2022-11-25T04:47:50;33.57;;;17.97;;
20695;SDS011;10507;52.754;13.040;2022-11-25T04:50:19;27.33;;;17.17;;
20695;SDS011;10507;52.754;13.040;2022-11-25T04:52:48;27.37;;;17.03;;
20695;SDS011;10507;52.754;13.040;2022-11-25T04:55:18;29.33;;;18.13;;
20695;SDS011;10507;52.754;13.040;2022-11-25T04:57:46;28.30;;;16.57;;
20695;SDS011;10507;52.754;13.040;2022-11-25T05:00:14;29.67;;;17.07;;
20695;SDS011;10507;52.754;13.040;2022-11-25T05:02:41;28.33;;;18.00;;
20695;SDS011;10507;52.754;13.040;2022-11-25T05:05:10;31.17;;;16.90;;
20695;SDS011;10507;52.754;13.040;2022-11-25T05:07:37;32.83;;;17.13;;
20695;SDS011;10507;52.754;13.040;2022-11-25T05:10:06;27.27;;;16.73;;
20695;SDS011;10507;52.754;13.040;2022-11-25T05:12:36;29.33;;;17.77;;
20695;SDS011;10507;52.754;13.040;2022-11-25T05:15:04;32.67;;;19.33;;
20695;SDS011;10507;52.754;13.040;2022-11-25T05:17:33;34.23;;;20.10;;
20695;SDS011;10507;52.754;13.040;2022-11-25T05:20:02;32.17;;;19.03;;
20695;SDS011;10507;52.754;13.040;2022-11-25T05:22:31;32.53;;;17.50;;
20695;SDS011;10507;52.754;13.040;2022-11-25T05:25:00;31.47;;;16.97;;
20695;SDS011;10507;52.754;13.040;2022-11-25T05:27:28;27.73;;;18.07;;
20695;SDS011;10507;52.754;13.040;2022-11-25T05:29:57;29.33;;;16.50;;
20695;SDS011;10507;52.754;13.040;2022-11-25T05:32:24;24.87;;;16.10;;
20695;SDS011;10507;52.754;13.040;2022-11-25T05:34:52;26.73;;;14.90;;
20695;SDS011;10507;52.754;13.040;2022-11-25T05:37:20;25.30;;;14.17;;
20695;SDS011;10507;52.754;13.040;2022-11-25T05:39:50;25.10;;;14.97;;
20695;SDS011;10507;52.754;13.040;2022-11-25T05:42:18;22.40;;;13.90;;
20695;SDS011;10507;52.754;13.040;2022-11-25T05:44:47;22.83;;;14.13;;
20695;SDS011;10507;52.754;13.040;2022-11-25T05:47:17;20.80;;;14.50;;
20695;SDS011;10507;52.754;13.040;2022-11-25T05:49:44;26.87;;;15.40;;
20695;SDS011;10507;52.754;13.040;2022-11-25T05:52:13;23.90;;;14.67;;
20695;SDS011;10507;52.754;13.040;2022-11-25T05:54:40;25.47;;;15.07;;
20695;SDS011;10507;52.754;13.040;2022-11-25T05:57:08;23.73;;;14.83;;
20695;SDS011;10507;52.754;13.040;2022-11-25T05:59:36;26.70;;;15.37;;
20695;SDS011;10507;52.754;13.040;2022-11-25T06:02:04;22.93;;;15.17;;
20695;SDS011;10507;52.754;13.040;2022-11-25T06:04:34;23.67;;;15.43;;
20695;SDS011;10507;52.754;13.040;2022-11-25T06:07:02;27.73;;;16.40;;
20695;SDS011;10507;52.754;13.040;2022-11-25T06:09:31;26.03;;;15.30;;
20695;SDS011;10507;52.754;13.040;2022-11-25T06:11:59;26.10;;;16.40;;
20695;SDS011;10507;52.754;13.040;2022-11-25T06:14:27;26.47;;;17.67;;
20695;SDS011;10507;52.754;13.040;2022-11-25T06:16:55;29.93;;;17.63;;
20695;SDS011;10507;52.754;13.040;2022-11-25T06:19:23;31.20;;;17.70;;
20695;SDS011;10507;52.754;13.040;2022-11-25T06:21:52;27.83;;;17.73;;
20695;SDS011;10507;52.754;13.040;2022-11-25T06:24:20;30.97;;;17.23;;
20695;SDS011;10507;52.754;13.040;2022-11-25T06:26:48;32.37;;;18.73;;
20695;SDS011;10507;52.754;13.040;2022-11-25T06:29:15;30.67;;;18.07;;
20695;SDS011;10507;52.754;13.040;2022-11-25T06:31:43;34.13;;;18.23;;
20695;SDS011;10507;52.754;13.040;2022-11-25T06:34:11;29.50;;;18.53;;
20695;SDS011;10507;52.754;13.040;2022-11-25T06:36:39;34.87;;;20.70;;
20695;SDS011;10507;52.754;13.040;2022-11-25T06:39:08;31.33;;;19.23;;
20695;SDS011;10507;52.754;13.040;2022-11-25T06:41:36;36.33;;;19.87;;
20695;SDS011;10507;52.754;13.040;2022-11-25T06:44:04;39.00;;;21.90;;
20695;SDS011;10507;52.754;13.040;2022-11-25T06:46:34;40.43;;;21.50;;
20695;SDS011;10507;52.754;13.040;2022-11-25T06:49:02;38.90;;;21.47;;
20695;SDS011;10507;52.754;13.040;2022-11-25T06:51:30;39.47;;;20.43;;
20695;SDS011;10507;52.754;13.040;2022-11-25T06:53:58;39.93;;;21.43;;
20695;SDS011;10507;52.754;13.040;2022-11-25T06:56:27;39.60;;;21.00;;
20695;SDS011;10507;52.754;13.040;2022-11-25T06:58:55;36.97;;;20.87;;
20695;SDS011;10507;52.754;13.040;2022-11-25T07:01:23;35.83;;;20.30;;
20695;SDS011;10507;52.754;13.040;2022-11-25T07:03:54;33.23;;;18.63;;
20695;SDS011;10507;52.754;13.040;2022-11-25T07:06:24;34.40;;;20.60;;
20695;SDS011;10507;52.754;13.040;2022-11-25T07:08:53;34.67;;;20.10;;
20695;SDS011;10507;52.754;13.040;2022-11-25T07:11:22;38.53;;;21.40;;
20695;SDS011;10507;52.754;13.040;2022-11-25T07:13:53;41.43;;;22.03;;
20695;SDS011;10507;52.754;13.040;2022-11-25T07:16:21;39.90;;;21.90;;
20695;SDS011;10507;52.754;13.040;2022-11-25T07:18:49;56.57;;;21.37;;
20695;SDS011;10507;52.754;13.040;2022-11-25T07:21:18;54.73;;;22.50;;
20695;SDS011;10507;52.754;13.040;2022-11-25T07:23:49;45.77;;;20.27;;
20695;SDS011;10507;52.754;13.040;2022-11-25T07:26:19;64.83;;;21.20;;
20695;SDS011;10507;52.754;13.040;2022-11-25T07:28:49;48.73;;;21.07;;
20695;SDS011;10507;52.754;13.040;2022-11-25T07:31:22;69.47;;;21.17;;
20695;SDS011;10507;52.754;13.040;2022-11-25T07:33:58;66.23;;;21.00;;
20695;SDS011;10507;52.754;13.040;2022-11-25T07:36:28;59.53;;;20.13;;
20695;SDS011;10507;52.754;13.040;2022-11-25T07:38:57;62.60;;;19.47;;
20695;SDS011;10507;52.754;13.040;2022-11-25T07:41:26;44.13;;;19.47;;
20695;SDS011;10507;52.754;13.040;2022-11-25T07:43:55;43.60;;;18.77;;
20695;SDS011;10507;52.754;13.040;2022-11-25T07:46:26;36.37;;;18.53;;
20695;SDS011;10507;52.754;13.040;2022-11-25T07:48:56;44.90;;;17.73;;
20695;SDS011;10507;52.754;13.040;2022-11-25T07:51:27;34.53;;;18.07;;
20695;SDS011;10507;52.754;13.040;2022-11-25T07:53:56;34.13;;;17.87;;
20695;SDS011;10507;52.754;13.040;2022-11-25T07:56:26;24.67;;;16.23;;
20695;SDS011;10507;52.754;13.040;2022-11-25T07:58:55;36.87;;;18.77;;
20695;SDS011;10507;52.754;13.040;2022-11-25T08:01:25;32.23;;;18.23;;
20695;SDS011;10507;52.754;13.040;2022-11-25T08:03:55;38.03;;;18.30;;
20695;SDS011;10507;52.754;13.040;2022-11-25T08:06:23;45.43;;;17.80;;
20695;SDS011;10507;52.754;13.040;2022-11-25T08:08:52;35.87;;;17.57;;
20695;SDS011;10507;52.754;13.040;2022-11-25T08:11:22;40.93;;;17.47;;
20695;SDS011;10507;52.754;13.040;2022-11-25T08:13:52;38.73;;;18.67;;
20695;SDS011;10507;52.754;13.040;2022-11-25T08:16:21;45.37;;;18.53;;
20695;SDS011;10507;52.754;13.040;2022-11-25T08:18:53;39.10;;;18.97;;
20695;SDS011;10507;52.754;13.040;2022-11-25T08:21:22;32.70;;;17.40;;
20695;SDS011;10507;52.754;13.040;2022-11-25T08:23:50;49.60;;;18.33;;
20695;SDS011;10507;52.754;13.040;2022-11-25T08:26:19;40.23;;;17.37;;
20695;SDS011;10507;52.754;13.040;2022-11-25T08:28:49;41.60;;;18.13;;
20695;SDS011;10507;52.754;13.040;2022-11-25T08:31:18;54.33;;;18.80;;
20695;SDS011;10507;52.754;13.040;2022-11-25T08:33:48;43.53;;;19.07;;
20695;SDS011;10507;52.754;13.040;2022-11-25T08:36:17;31.73;;;18.10;;
20695;SDS011;10507;52.754;13.040;2022-11-25T08:38:47;42.17;;;17.07;;
20695;SDS011;10507;52.754;13.040;2022-11-25T08:41:19;34.67;;;18.33;;
20695;SDS011;10507;52.754;13.040;2022-11-25T08:43:48;60.37;;;19.20;;
20695;SDS011;10507;52.754;13.040;2022-11-25T08:46:17;36.07;;;18.80;;
20695;SDS011;10507;52.754;13.040;2022-11-25T08:48:47;42.40;;;20.13;;
20695;SDS011;10507;52.754;13.040;2022-11-25T08:51:16;53.67;;;21.17;;
20695;SDS011;10507;52.754;13.040;2022-11-25T08:53:46;51.53;;;20.77;;
20695;SDS011;10507;52.754;13.040;2022-11-25T08:56:16;73.60;;;20.13;;
20695;SDS011;10507;52.754;13.040;2022-11-25T08:58:51;48.00;;;19.73;;
20695;SDS011;10507;52.754;13.040;2022-11-25T09:01:19;49.53;;;19.80;;
20695;SDS011;10507;52.754;13.040;2022-11-25T09:03:50;54.47;;;19.40;;
20695;SDS011;10507;52.754;13.040;2022-11-25T09:06:22;45.20;;;18.13;;
20695;SDS011;10507;52.754;13.040;2022-11-25T09:08:50;45.30;;;18.93;;
20695;SDS011;10507;52.754;13.040;2022-11-25T09:11:22;90.50;;;19.97;;
20695;SDS011;10507;52.754;13.040;2022-11-25T09:13:50;59.90;;;19.40;;
20695;SDS011;10507;52.754;13.040;2022-11-25T09:16:18;64.13;;;19.07;;
20695;SDS011;10507;52.754;13.040;2022-11-25T09:18:47;53.87;;;19.27;;
20695;SDS011;10507;52.754;13.040;2022-11-25T09:21:22;37.33;;;19.10;;
20695;SDS011;10507;52.754;13.040;2022-11-25T09:23:51;38.20;;;18.83;;
20695;SDS011;10507;52.754;13.040;2022-11-25T09:26:21;30.87;;;17.80;;
20695;SDS011;10507;52.754;13.040;2022-11-25T09:28:50;33.17;;;17.03;;
20695;SDS011;10507;52.754;13.040;2022-11-25T09:31:18;31.43;;;17.93;;
20695;SDS011;10507;52.754;13.040;2022-11-25T09:33:47;32.13;;;18.53;;
20695;SDS011;10507;52.754;13.040;2022-11-25T09:36:15;35.67;;;18.63;;
20695;SDS011;10507;52.754;13.040;2022-11-25T09:38:46;38.73;;;18.23;;
20695;SDS011;10507;52.754;13.040;2022-11-25T09:41:18;46.23;;;19.07;;
20695;SDS011;10507;52.754;13.040;2022-11-25T09:44:16;26.73;;;16.47;;
20695;SDS011;10507;52.754;13.040;2022-11-25T09:47:13;35.00;;;18.77;;
20695;SDS011;10507;52.754;13.040;2022-11-25T09:49:56;40.60;;;17.07;;
20695;SDS011;10507;52.754;13.040;2022-11-25T09:52:35;33.00;;;17.70;;
20695;SDS011;10507;52.754;13.040;2022-11-25T09:55:14;34.87;;;18.10;;
20695;SDS011;10507;52.754;13.040;2022-11-25T09:57:49;40.23;;;19.20;;
20695;SDS011;10507;52.754;13.040;2022-11-25T10:00:36;40.77;;;18.57;;
20695;SDS011;10507;52.754;13.040;2022-11-25T10:03:10;47.00;;;19.73;;
20695;SDS011;10507;52.754;13.040;2022-11-25T10:05:45;44.20;;;19.10;;
20695;SDS011;10507;52.754;13.040;2022-11-25T10:08:19;41.60;;;20.70;;
20695;SDS011;10507;52.754;13.040;2022-11-25T10:10:54;35.67;;;20.90;;
20695;SDS011;10507;52.754;13.040;2022-11-25T10:13:28;38.60;;;19.57;;
20695;SDS011;10507;52.754;13.040;2022-11-25T10:16:05;40.63;;;20.63;;
20695;SDS011;10507;52.754;13.040;2022-11-25T10:18:41;40.73;;;19.57;;
20695;SDS011;10507;52.754;13.040;2022-11-25T10:21:14;48.07;;;20.73;;
20695;SDS011;10507;52.754;13.040;2022-11-25T10:23:42;34.33;;;19.57;;
20695;SDS011;10507;52.754;13.040;2022-11-25T10:26:12;52.83;;;22.40;;
20695;SDS011;10507;52.754;13.040;2022-11-25T10:28:43;47.17;;;21.10;;
20695;SDS011;10507;52.754;13.040;2022-11-25T10:31:18;52.40;;;22.77;;
20695;SDS011;10507;52.754;13.040;2022-11-25T10:33:51;54.87;;;24.30;;
20695;SDS011;10507;52.754;13.040;2022-11-25T10:36:24;49.77;;;23.60;;
20695;SDS011;10507;52.754;13.040;2022-11-25T10:38:56;46.87;;;23.87;;
20695;SDS011;10507;52.754;13.040;2022-11-25T10:41:29;57.30;;;25.50;;
20695;SDS011;10507;52.754;13.040;2022-11-25T10:43:59;53.00;;;25.10;;
20695;SDS011;10507;52.754;13.040;2022-11-25T10:46:29;48.20;;;24.83;;
20695;SDS011;10507;52.754;13.040;2022-11-25T10:49:25;52.97;;;24.77;;
20695;SDS011;10507;52.754;13.040;2022-11-25T10:51:57;52.67;;;25.73;;
20695;SDS011;10507;52.754;13.040;2022-11-25T10:54:25;56.23;;;27.47;;
20695;SDS011;10507;52.754;13.040;2022-11-25T10:56:56;55.83;;;28.47;;
20695;SDS011;10507;52.754;13.040;2022-11-25T10:59:26;51.50;;;27.47;;
20695;SDS011;10507;52.754;13.040;2022-11-25T11:02:16;52.93;;;27.10;;
20695;SDS011;10507;52.754;13.040;2022-11-25T11:04:53;63.10;;;27.67;;
20695;SDS011;10507;52.754;13.040;2022-11-25T11:07:23;52.13;;;25.30;;
20695;SDS011;10507;52.754;13.040;2022-11-25T11:09:53;52.77;;;27.00;;
20695;SDS011;10507;52.754;13.040;2022-11-25T11:12:23;51.73;;;27.80;;
20695;SDS011;10507;52.754;13.040;2022-11-25T11:14:52;49.20;;;26.00;;
20695;SDS011;10507;52.754;13.040;2022-11-25T11:17:40;56.23;;;26.47;;
20695;SDS011;10507;52.754;13.040;2022-11-25T11:20:15;53.93;;;27.50;;
20695;SDS011;10507;52.754;13.040;2022-11-25T11:22:49;52.20;;;25.30;;
20695;SDS011;10507;52.754;13.040;2022-11-25T11:25:29;54.80;;;27.50;;
20695;SDS011;10507;52.754;13.040;2022-11-25T11:28:01;54.07;;;26.43;;
20695;SDS011;10507;52.754;13.040;2022-11-25T11:30:30;55.43;;;25.73;;
20695;SDS011;10507;52.754;13.040;2022-11-25T11:33:00;70.67;;;27.93;;
20695;SDS011;10507;52.754;13.040;2022-11-25T11:35:37;57.77;;;27.63;;
20695;SDS011;10507;52.754;13.040;2022-11-25T11:38:20;61.63;;;30.00;;
20695;SDS011;10507;52.754;13.040;2022-11-25T11:40:54;65.70;;;29.17;;
20695;SDS011;10507;52.754;13.040;2022-11-25T11:43:40;60.10;;;29.07;;
20695;SDS011;10507;52.754;13.040;2022-11-25T11:46:23;63.83;;;29.57;;
20695;SDS011;10507;52.754;13.040;2022-11-25T11:49:01;60.60;;;27.57;;
20695;SDS011;10507;52.754;13.040;2022-11-25T11:51:44;57.60;;;27.87;;
20695;SDS011;10507;52.754;13.040;2022-11-25T11:54:21;62.47;;;28.63;;
20695;SDS011;10507;52.754;13.040;2022-11-25T11:56:58;63.30;;;29.20;;
20695;SDS011;10507;52.754;13.040;2022-11-25T11:59:38;59.07;;;28.90;;
20695;SDS011;10507;52.754;13.040;2022-11-25T12:02:29;84.10;;;29.03;;
20695;SDS011;10507;52.754;13.040;2022-11-25T12:05:11;77.73;;;29.30;;
20695;SDS011;10507;52.754;13.040;2022-11-25T12:07:43;84.17;;;30.00;;
20695;SDS011;10507;52.754;13.040;2022-11-25T12:10:29;62.53;;;28.80;;
20695;SDS011;10507;52.754;13.040;2022-11-25T12:13:04;70.13;;;28.27;;
20695;SDS011;10507;52.754;13.040;2022-11-25T12:15:40;55.00;;;27.87;;
20695;SDS011;10507;52.754;13.040;2022-11-25T12:18:14;54.87;;;28.13;;
20695;SDS011;10507;52.754;13.040;2022-11-25T12:20:52;56.80;;;28.43;;
20695;SDS011;10507;52.754;13.040;2022-11-25T12:23:27;60.20;;;31.10;;
20695;SDS011;10507;52.754;13.040;2022-11-25T12:26:05;52.40;;;28.87;;
20695;SDS011;10507;52.754;13.040;2022-11-25T12:28:39;52.30;;;28.37;;
20695;SDS011;10507;52.754;13.040;2022-11-25T12:31:16;55.57;;;27.07;;
20695;SDS011;10507;52.754;13.040;2022-11-25T12:33:51;55.33;;;28.10;;
20695;SDS011;10507;52.754;13.040;2022-11-25T12:36:25;52.13;;;26.10;;
20695;SDS011;10507;52.754;13.040;2022-11-25T12:38:59;45.33;;;25.27;;
20695;SDS011;10507;52.754;13.040;2022-11-25T12:41:31;48.40;;;25.77;;
20695;SDS011;10507;52.754;13.040;2022-11-25T12:44:07;47.70;;;25.30;;
20695;SDS011;10507;52.754;13.040;2022-11-25T12:46:41;47.80;;;25.03;;
20695;SDS011;10507;52.754;13.040;2022-11-25T12:49:14;46.10;;;25.47;;
20695;SDS011;10507;52.754;13.040;2022-11-25T12:55:05;44.17;;;24.87;;
20695;SDS011;10507;52.754;13.040;2022-11-25T13:00:35;43.97;;;24.07;;
20695;SDS011;10507;52.754;13.040;2022-11-25T13:06:26;46.30;;;24.10;;
20695;SDS011;10507;52.754;13.040;2022-11-25T13:09:18;40.10;;;23.13;;
20695;SDS011;10507;52.754;13.040;2022-11-25T13:12:06;47.03;;;26.20;;
20695;SDS011;10507;52.754;13.040;2022-11-25T13:14:54;42.23;;;24.07;;
20695;SDS011;10507;52.754;13.040;2022-11-25T13:17:35;41.63;;;23.20;;
20695;SDS011;10507;52.754;13.040;2022-11-25T13:23:05;39.13;;;22.67;;
20695;SDS011;10507;52.754;13.040;2022-11-25T13:25:48;42.17;;;22.10;;
20695;SDS011;10507;52.754;13.040;2022-11-25T13:28:27;45.83;;;23.27;;
20695;SDS011;10507;52.754;13.040;2022-11-25T13:31:17;43.70;;;23.93;;
20695;SDS011;10507;52.754;13.040;2022-11-25T13:34:05;39.53;;;23.17;;
20695;SDS011;10507;52.754;13.040;2022-11-25T13:36:47;39.70;;;22.67;;
20695;SDS011;10507;52.754;13.040;2022-11-25T13:39:16;40.43;;;22.87;;
20695;SDS011;10507;52.754;13.040;2022-11-25T13:41:48;42.80;;;21.07;;
20695;SDS011;10507;52.754;13.040;2022-11-25T13:44:26;39.80;;;22.50;;
20695;SDS011;10507;52.754;13.040;2022-11-25T13:46:58;39.50;;;22.03;;
20695;SDS011;10507;52.754;13.040;2022-11-25T13:49:52;38.93;;;23.63;;
20695;SDS011;10507;52.754;13.040;2022-11-25T13:52:29;38.10;;;21.80;;
20695;SDS011;10507;52.754;13.040;2022-11-25T13:55:06;44.50;;;23.20;;
20695;SDS011;10507;52.754;13.040;2022-11-25T13:57:48;45.43;;;22.70;;
20695;SDS011;10507;52.754;13.040;2022-11-25T14:00:53;42.70;;;23.23;;
20695;SDS011;10507;52.754;13.040;2022-11-25T14:03:45;44.03;;;24.40;;
20695;SDS011;10507;52.754;13.040;2022-11-25T14:06:20;40.70;;;22.73;;
20695;SDS011;10507;52.754;13.040;2022-11-25T14:09:11;43.90;;;23.70;;
20695;SDS011;10507;52.754;13.040;2022-11-25T14:11:53;49.23;;;26.30;;
20695;SDS011;10507;52.754;13.040;2022-11-25T14:14:41;49.20;;;24.53;;
20695;SDS011;10507;52.754;13.040;2022-11-25T14:17:29;43.57;;;25.23;;
20695;SDS011;10507;52.754;13.040;2022-11-25T14:20:20;52.40;;;26.30;;
20695;SDS011;10507;52.754;13.040;2022-11-25T14:23:02;47.20;;;25.43;;
20695;SDS011;10507;52.754;13.040;2022-11-25T14:25:50;48.17;;;25.10;;
20695;SDS011;10507;52.754;13.040;2022-11-25T14:28:23;45.67;;;26.10;;
20695;SDS011;10507;52.754;13.040;2022-11-25T14:30:54;46.20;;;26.03;;
20695;SDS011;10507;52.754;13.040;2022-11-25T14:33:28;50.10;;;24.97;;
20695;SDS011;10507;52.754;13.040;2022-11-25T14:36:02;55.50;;;26.90;;
20695;SDS011;10507;52.754;13.040;2022-11-25T14:38:36;50.33;;;26.40;;
20695;SDS011;10507;52.754;13.040;2022-11-25T14:41:15;45.27;;;25.00;;
20695;SDS011;10507;52.754;13.040;2022-11-25T14:43:46;47.73;;;25.27;;
20695;SDS011;10507;52.754;13.040;2022-11-25T14:46:19;47.27;;;25.67;;
20695;SDS011;10507;52.754;13.040;2022-11-25T14:48:51;49.73;;;25.70;;
20695;SDS011;10507;52.754;13.040;2022-11-25T14:51:20;45.57;;;24.70;;